Time;durP1;ratioP1;P1;durP2;ratioP2;P2;SDS_P1;SDS_P2;PMS_P1;PMS_P2;Temp;Humidity;BMP_temperature;BMP_pressure;BME280_temperature;BME280_humidity;BME280_pressure;Samples;Min_cycle;Max_cycle;Signal;HPM_P1;HPM_P2
2023/03/28 03:01:42;;;;;;;3.37;1.37;;;4.40;77.50;;;;;;5495121;23;20494;-69
2023/03/28 03:04:10;;;;;;;2.70;1.40;;;4.40;77.30;;;;;;4977554;28;20442;-69
2023/03/28 03:06:36;;;;;;;3.47;1.30;;;4.40;77.10;;;;;;4977521;28;20450;-69
2023/03/28 03:09:04;;;;;;;2.70;1.17;;;4.40;77.00;;;;;;4977471;28;20493;-69
2023/03/28 03:11:31;;;;;;;2.57;1.60;;;4.40;77.00;;;;;;4977307;28;20462;-70
2023/03/28 03:13:59;;;;;;;2.83;1.60;;;4.40;76.90;;;;;;4977405;28;20449;-68
2023/03/28 03:16:27;;;;;;;3.37;1.70;;;4.30;77.40;;;;;;4992655;23;20450;-69
2023/03/28 03:18:56;;;;;;;3.03;1.47;;;4.30;77.40;;;;;;4957847;29;20483;-70
2023/03/28 03:21:24;;;;;;;2.50;1.50;;;4.30;77.20;;;;;;4957832;28;20502;-68
2023/03/28 03:23:50;;;;;;;2.90;1.37;;;4.30;77.10;;;;;;4957508;29;20932;-69
2023/03/28 03:26:17;;;;;;;2.37;1.40;;;4.30;77.20;;;;;;4957823;28;20509;-68
2023/03/28 03:28:44;;;;;;;4.03;2.23;;;4.30;77.20;;;;;;4957546;29;20917;-68
2023/03/28 03:31:11;;;;;;;3.43;1.20;;;4.30;77.20;;;;;;4957784;29;20539;-68
2023/03/28 03:33:38;;;;;;;3.30;1.43;;;4.30;77.20;;;;;;4957620;29;20459;-68
2023/03/28 03:36:08;;;;;;;2.50;1.30;;;4.30;77.20;;;;;;4957605;29;20446;-68
2023/03/28 03:38:35;;;;;;;3.50;1.67;;;4.30;77.10;;;;;;4957774;29;20515;-68
2023/03/28 03:41:02;;;;;;;2.93;1.63;;;4.30;77.20;;;;;;4957492;29;20454;-68
2023/03/28 03:43:28;;;;;;;2.80;1.50;;;4.20;77.40;;;;;;4957424;29;20459;-68
2023/03/28 03:45:56;;;;;;;2.40;1.43;;;4.20;77.50;;;;;;4957490;29;20439;-69
2023/03/28 03:48:23;;;;;;;2.70;1.67;;;4.20;77.50;;;;;;4957014;28;20850;-68
2023/03/28 03:50:50;;;;;;;2.20;1.20;;;4.20;77.70;;;;;;4957354;29;20851;-69
2023/03/28 03:53:18;;;;;;;3.20;1.83;;;4.20;77.70;;;;;;4956898;29;20821;-68
2023/03/28 03:55:45;;;;;;;3.23;1.90;;;4.10;77.50;;;;;;4957199;29;20459;-68
2023/03/28 03:58:11;;;;;;;3.53;1.70;;;4.20;77.60;;;;;;4957009;28;20475;-69
2023/03/28 04:00:38;;;;;;;2.60;1.63;;;4.20;77.50;;;;;;4957089;29;20576;-68
2023/03/28 04:03:05;;;;;;;2.37;1.27;;;4.10;77.40;;;;;;4957078;29;20498;-68
2023/03/28 04:05:31;;;;;;;3.33;1.97;;;4.10;77.50;;;;;;4957013;29;20510;-68
2023/03/28 04:08:00;;;;;;;2.70;1.40;;;4.10;77.40;;;;;;4956963;28;20475;-68
2023/03/28 04:10:28;;;;;;;2.80;1.60;;;4.10;77.40;;;;;;4957011;29;20447;-68
2023/03/28 04:12:55;;;;;;;2.50;1.60;;;4.10;77.50;;;;;;4956923;29;20502;-68
2023/03/28 04:15:21;;;;;;;3.70;1.83;;;4.10;77.50;;;;;;4956759;29;20550;-69
2023/03/28 04:17:48;;;;;;;2.77;1.47;;;4.10;77.50;;;;;;4956500;28;20487;-68
2023/03/28 04:20:16;;;;;;;2.50;1.40;;;4.10;77.30;;;;;;4956586;29;20494;-68
2023/03/28 04:22:44;;;;;;;2.83;1.43;;;4.10;77.50;;;;;;4956687;29;20461;-68
2023/03/28 04:25:12;;;;;;;2.30;1.30;;;4.00;77.50;;;;;;4956668;29;20459;-68
2023/03/28 04:27:45;;;;;;;2.60;1.53;;;4.00;77.50;;;;;;4956456;28;20475;-68
2023/03/28 04:30:12;;;;;;;2.40;1.50;;;4.00;77.40;;;;;;4956336;29;20968;-68
2023/03/28 04:32:40;;;;;;;2.60;1.53;;;4.00;77.50;;;;;;4956498;29;20455;-68
2023/03/28 04:35:07;;;;;;;3.67;2.23;;;4.00;77.50;;;;;;4956473;29;20454;-68
2023/03/28 04:37:36;;;;;;;3.07;1.80;;;3.90;77.40;;;;;;4956544;28;20692;-68
2023/03/28 04:40:09;;;;;;;3.13;1.37;;;3.90;77.40;;;;;;4956125;29;20622;-68
2023/03/28 04:42:36;;;;;;;3.03;1.67;;;4.00;77.20;;;;;;4956123;29;20913;-70
2023/03/28 04:45:05;;;;;;;2.70;1.50;;;4.00;77.00;;;;;;4956081;29;20451;-68
2023/03/28 04:47:32;;;;;;;3.33;1.73;;;3.90;77.20;;;;;;4956187;28;20471;-68
2023/03/28 04:49:59;;;;;;;2.80;1.70;;;3.80;77.50;;;;;;4956266;29;20443;-70
2023/03/28 04:52:26;;;;;;;2.90;1.70;;;3.90;77.50;;;;;;4956135;29;20451;-69
2023/03/28 04:54:53;;;;;;;2.80;1.70;;;3.90;77.20;;;;;;4956146;29;20458;-68
2023/03/28 04:57:19;;;;;;;2.77;1.67;;;3.90;77.20;;;;;;4956155;28;20526;-68
2023/03/28 04:59:46;;;;;;;2.90;1.70;;;3.90;77.40;;;;;;4956104;29;20491;-69
2023/03/28 05:02:15;;;;;;;4.03;1.43;;;3.90;77.40;;;;;;4955975;29;20506;-69
2023/03/28 05:04:42;;;;;;;3.43;1.80;;;3.80;77.80;;;;;;4955954;28;20451;-68
2023/03/28 05:07:08;;;;;;;2.80;1.80;;;3.80;77.80;;;;;;4955539;28;20992;-68
2023/03/28 05:09:36;;;;;;;2.60;1.60;;;3.80;77.50;;;;;;4955943;28;20494;-68
2023/03/28 05:12:03;;;;;;;2.57;1.60;;;3.80;77.50;;;;;;4955551;29;20461;-70
2023/03/28 05:14:30;;;;;;;3.40;1.60;;;3.90;77.10;;;;;;4955465;29;20809;-69
2023/03/28 05:16:57;;;;;;;3.07;1.37;;;3.80;77.20;;;;;;4955612;28;20482;-69
2023/03/28 05:19:25;;;;;;;3.03;1.70;;;3.80;77.20;;;;;;4955522;29;20486;-68
2023/03/28 05:21:51;;;;;;;2.70;1.67;;;3.80;77.20;;;;;;4955352;29;20952;-69
2023/03/28 05:24:18;;;;;;;3.27;1.70;;;3.80;77.30;;;;;;4955669;29;20447;-69
2023/03/28 05:26:45;;;;;;;3.10;1.80;;;3.90;77.20;;;;;;4955535;28;20541;-70
2023/03/28 05:29:11;;;;;;;3.40;1.80;;;3.90;77.00;;;;;;4955468;29;20447;-69
2023/03/28 05:31:38;;;;;;;2.60;1.53;;;3.90;77.10;;;;;;4955474;29;20459;-68
2023/03/28 05:34:05;;;;;;;2.87;1.90;;;4.00;77.10;;;;;;4955654;29;20455;-68
2023/03/28 05:36:34;;;;;;;2.70;1.67;;;4.10;76.90;;;;;;4955387;28;20890;-68
2023/03/28 05:39:01;;;;;;;3.10;1.80;;;4.20;76.90;;;;;;4955311;29;20529;-69
2023/03/28 05:41:27;;;;;;;2.60;1.70;;;4.40;77.10;;;;;;4955383;29;20451;-70
2023/03/28 05:43:54;;;;;;;2.43;1.90;;;4.90;76.20;;;;;;4955350;29;20538;-69
2023/03/28 05:46:21;;;;;;;2.80;1.50;;;5.50;74.30;;;;;;4955324;28;20451;-69
2023/03/28 05:48:47;;;;;;;3.33;1.80;;;6.00;72.10;;;;;;4955367;29;20447;-70
2023/03/28 05:51:15;;;;;;;3.97;1.90;;;6.60;70.60;;;;;;4955285;29;20498;-72
2023/03/28 05:53:43;;;;;;;2.70;1.60;;;7.20;68.90;;;;;;4956272;29;20596;-70
2023/03/28 05:56:10;;;;;;;3.77;1.60;;;7.90;66.70;;;;;;4955168;28;20451;-71
2023/03/28 05:58:39;;;;;;;2.80;1.60;;;8.80;64.40;;;;;;4955196;29;20458;-71
2023/03/28 06:01:06;;;;;;;2.97;1.50;;;9.60;61.60;;;;;;4955057;29;20495;-70
2023/03/28 06:03:38;;;;;;;2.87;1.57;;;10.30;60.00;;;;;;4955094;29;20498;-69
2023/03/28 06:06:06;;;;;;;2.93;1.87;;;11.00;58.00;;;;;;4955100;29;20440;-69
2023/03/28 06:08:32;;;;;;;2.30;1.30;;;11.90;56.00;;;;;;4954944;28;20471;-70
2023/03/28 06:11:02;;;;;;;2.30;1.30;;;12.70;54.10;;;;;;4955008;29;20436;-70
2023/03/28 06:13:29;;;;;;;2.40;1.57;;;13.40;52.10;;;;;;4954963;29;20454;-70
2023/03/28 06:15:55;;;;;;;4.10;1.60;;;14.20;50.70;;;;;;4954799;29;20459;-70
2023/03/28 06:18:22;;;;;;;4.37;2.00;;;14.90;48.80;;;;;;4954449;28;20487;-70
2023/03/28 06:20:49;;;;;;;2.50;1.30;;;15.70;47.70;;;;;;4954891;29;20490;-70
2023/03/28 06:23:16;;;;;;;2.93;1.57;;;16.30;46.20;;;;;;4956798;28;20953;-69
2023/03/28 06:25:43;;;;;;;3.23;1.77;;;17.00;44.80;;;;;;4958787;29;20454;-70
2023/03/28 06:28:11;;;;;;;3.57;1.57;;;17.10;44.80;;;;;;4958720;28;20596;-70
2023/03/28 06:30:39;;;;;;;2.87;1.90;;;17.80;43.30;;;;;;4958691;29;20501;-70
2023/03/28 06:33:06;;;;;;;3.03;1.60;;;18.30;42.40;;;;;;4958276;29;20944;-70
2023/03/28 06:35:34;;;;;;;3.23;2.00;;;18.80;41.40;;;;;;4958459;29;20866;-70
2023/03/28 06:38:02;;;;;;;2.70;1.53;;;19.10;41.30;;;;;;4958686;28;20477;-70
2023/03/28 06:40:28;;;;;;;3.40;1.83;;;19.70;40.50;;;;;;4958622;29;20483;-69
2023/03/28 06:42:55;;;;;;;3.17;1.83;;;19.90;38.80;;;;;;4958273;29;20809;-69
2023/03/28 06:45:23;;;;;;;3.90;1.73;;;19.10;39.80;;;;;;4958295;29;20539;-69
2023/03/28 06:47:50;;;;;;;2.90;1.60;;;18.50;41.00;;;;;;4958214;28;20554;-69
2023/03/28 06:50:17;;;;;;;2.97;1.60;;;18.50;42.10;;;;;;4958253;29;20451;-71
2023/03/28 06:52:45;;;;;;;2.60;1.33;;;19.00;41.60;;;;;;4958240;29;20447;-70
2023/03/28 06:55:11;;;;;;;2.80;1.60;;;19.70;39.80;;;;;;4958152;29;20482;-70
2023/03/28 06:57:38;;;;;;;2.30;1.50;;;20.00;39.40;;;;;;4958108;28;20512;-70
2023/03/28 07:00:07;;;;;;;2.27;1.60;;;21.20;38.60;;;;;;4958026;29;20489;-71
2023/03/28 07:02:35;;;;;;;3.27;1.83;;;21.20;37.70;;;;;;4957998;29;20457;-70
2023/03/28 07:05:01;;;;;;;2.47;1.30;;;21.80;37.30;;;;;;4958025;29;20502;-69
2023/03/28 07:07:28;;;;;;;3.10;1.33;;;22.30;35.70;;;;;;4958380;28;20471;-70
2023/03/28 07:09:55;;;;;;;2.97;1.40;;;22.40;36.00;;;;;;4957894;29;20510;-70
2023/03/28 07:12:21;;;;;;;2.43;1.63;;;22.20;36.40;;;;;;4957624;29;20878;-70
2023/03/28 07:14:48;;;;;;;3.47;1.70;;;22.90;36.00;;;;;;4957848;29;20885;-70
2023/03/28 07:17:15;;;;;;;2.70;1.70;;;22.60;34.70;;;;;;4957913;28;20880;-70
2023/03/28 07:19:44;;;;;;;2.63;1.70;;;21.50;36.70;;;;;;4957659;29;20490;-70
2023/03/28 07:22:10;;;;;;;3.00;1.77;;;20.70;37.50;;;;;;4957954;29;20451;-70
2023/03/28 07:24:37;;;;;;;3.17;1.97;;;19.20;39.40;;;;;;4957672;29;20447;-69
2023/03/28 07:27:04;;;;;;;2.40;1.53;;;18.10;40.70;;;;;;4957545;28;20477;-69
2023/03/28 07:29:31;;;;;;;3.57;1.67;;;16.70;42.80;;;;;;4957998;29;20457;-70
2023/03/28 07:31:57;;;;;;;2.60;1.50;;;15.60;45.60;;;;;;4957474;29;20451;-70
2023/03/28 07:34:24;;;;;;;3.93;1.37;;;14.80;44.50;;;;;;4957053;28;20465;-69
2023/03/28 07:36:52;;;;;;;3.20;1.93;;;13.60;47.60;;;;;;4957318;28;20482;-69
2023/03/28 07:39:19;;;;;;;3.10;1.50;;;12.50;48.70;;;;;;4957371;29;20455;-69
2023/03/28 07:41:46;;;;;;;3.40;1.70;;;11.70;51.00;;;;;;4957244;29;20494;-71
2023/03/28 07:44:12;;;;;;;3.30;2.00;;;11.60;52.10;;;;;;4956970;29;21012;-70
2023/03/28 07:46:39;;;;;;;4.07;1.90;;;11.50;52.30;;;;;;4956982;28;20467;-70
2023/03/28 07:49:06;;;;;;;3.10;1.87;;;11.30;52.10;;;;;;4957156;29;20505;-70
2023/03/28 07:51:33;;;;;;;3.87;2.10;;;11.30;54.40;;;;;;4957212;29;20456;-69
2023/03/28 07:54:03;;;;;;;3.20;2.30;;;11.40;54.80;;;;;;4957088;29;20455;-70
2023/03/28 07:56:30;;;;;;;3.43;1.67;;;11.50;53.50;;;;;;4956962;28;20471;-72
2023/03/28 07:58:57;;;;;;;2.83;1.30;;;11.60;53.00;;;;;;4957038;29;20447;-69
2023/03/28 08:01:25;;;;;;;4.00;1.97;;;11.30;52.70;;;;;;4956889;29;20483;-70
2023/03/28 08:03:51;;;;;;;2.60;1.67;;;10.60;54.40;;;;;;4957640;29;20466;-69
2023/03/28 08:06:18;;;;;;;3.30;1.67;;;10.50;53.90;;;;;;4956765;28;20510;-71
2023/03/28 08:08:45;;;;;;;3.90;1.50;;;10.60;54.20;;;;;;4956990;29;20502;-70
2023/03/28 08:11:13;;;;;;;2.50;1.37;;;10.80;54.50;;;;;;4956871;28;20483;-69
2023/03/28 08:13:40;;;;;;;5.13;1.70;;;10.80;52.30;;;;;;4956852;29;20450;-69
2023/03/28 08:16:08;;;;;;;3.60;1.70;;;10.70;53.10;;;;;;4956797;29;20506;-70
2023/03/28 08:18:34;;;;;;;3.20;1.13;;;10.40;54.00;;;;;;4956448;28;20469;-70
2023/03/28 08:21:02;;;;;;;3.53;1.93;;;10.20;54.50;;;;;;4956584;29;20612;-69
2023/03/28 08:23:29;;;;;;;3.00;1.60;;;9.80;53.60;;;;;;4956593;29;20451;-70
2023/03/28 08:26:03;;;;;;;2.60;1.47;;;9.70;55.30;;;;;;4956810;29;20816;-69
2023/03/28 08:28:32;;;;;;;4.10;1.63;;;9.90;56.60;;;;;;4956408;28;20481;-69
2023/03/28 08:30:59;;;;;;;6.30;2.00;;;9.50;54.30;;;;;;4956427;29;20542;-70
2023/03/28 08:33:27;;;;;;;2.67;1.40;;;9.50;56.40;;;;;;4956425;29;20455;-70
2023/03/28 08:35:54;;;;;;;2.30;1.23;;;9.70;54.70;;;;;;4956311;29;20455;-70
2023/03/28 08:38:22;;;;;;;4.17;1.37;;;9.50;54.60;;;;;;4956235;28;20467;-70
2023/03/28 08:40:58;;;;;;;2.50;1.40;;;9.80;54.50;;;;;;4956164;29;20490;-70
2023/03/28 08:43:51;;;;;;;5.63;2.77;;;9.80;54.00;;;;;;4956124;29;20431;-70
2023/03/28 08:46:21;;;;;;;2.50;1.30;;;9.60;52.70;;;;;;4955321;28;20444;-71
2023/03/28 08:48:50;;;;;;;3.23;1.90;;;9.50;52.90;;;;;;4956063;29;20498;-70
2023/03/28 08:51:22;;;;;;;3.23;1.60;;;9.20;54.60;;;;;;4955834;29;20458;-70
2023/03/28 08:53:54;;;;;;;4.20;1.30;;;9.30;54.50;;;;;;4956217;29;20431;-71
2023/03/28 08:56:21;;;;;;;3.27;1.77;;;9.40;54.20;;;;;;4955536;28;20487;-71
2023/03/28 08:58:54;;;;;;;3.80;1.67;;;9.70;53.90;;;;;;4955819;29;20495;-70
2023/03/28 09:01:22;;;;;;;3.80;1.57;;;9.80;54.20;;;;;;4956055;29;20554;-70
2023/03/28 09:03:49;;;;;;;2.97;1.53;;;10.10;54.60;;;;;;4955752;29;20541;-70
2023/03/28 09:06:26;;;;;;;3.53;1.70;;;10.30;54.30;;;;;;4955689;28;20542;-71
2023/03/28 09:09:31;;;;;;;2.93;1.67;;;10.00;53.40;;;;;;4955670;29;20446;-70
2023/03/28 09:12:05;;;;;;;4.33;1.43;;;10.00;50.40;;;;;;4896252;29;20477;-70
2023/03/28 09:14:52;;;;;;;2.57;1.47;;;9.80;51.80;;;;;;4947487;28;20956;-69
2023/03/28 09:17:27;;;;;;;3.00;1.73;;;9.70;52.90;;;;;;5021719;23;20601;-70
2023/03/28 09:20:10;;;;;;;2.73;1.30;;;9.40;53.40;;;;;;4974784;28;20434;-69
2023/03/28 09:22:51;;;;;;;2.90;1.40;;;8.70;52.90;;;;;;4974661;28;20426;-69
2023/03/28 09:25:29;;;;;;;2.73;1.33;;;8.50;54.30;;;;;;4975337;28;20461;-69
2023/03/28 09:28:02;;;;;;;2.40;1.33;;;8.30;54.50;;;;;;4974551;28;20478;-70
2023/03/28 09:30:33;;;;;;;2.80;1.60;;;8.30;53.40;;;;;;4974636;28;20452;-70
2023/03/28 09:33:05;;;;;;;3.20;1.40;;;8.40;54.80;;;;;;4974459;28;20912;-70
2023/03/28 09:35:32;;;;;;;3.00;1.50;;;8.70;55.00;;;;;;4974409;28;20494;-72
2023/03/28 09:38:03;;;;;;;3.30;1.50;;;8.70;56.00;;;;;;4974328;28;20489;-70
2023/03/28 09:40:31;;;;;;;3.13;1.00;;;8.70;52.80;;;;;;4974590;28;20505;-70
2023/03/28 09:43:06;;;;;;;2.53;1.10;;;8.70;53.40;;;;;;4974414;28;20534;-70
2023/03/28 09:45:52;;;;;;;3.77;1.30;;;8.70;53.90;;;;;;4974415;28;20441;-70
2023/03/28 09:48:24;;;;;;;2.10;1.10;;;8.60;54.50;;;;;;4974343;28;20470;-70
2023/03/28 09:50:52;;;;;;;2.90;1.40;;;8.80;52.40;;;;;;4973958;28;20842;-69
2023/03/28 09:53:25;;;;;;;4.70;1.33;;;8.80;51.90;;;;;;4974126;28;20538;-70
2023/03/28 09:55:53;;;;;;;2.83;1.17;;;8.80;51.70;;;;;;4974048;28;20450;-70
2023/03/28 09:58:20;;;;;;;2.20;1.20;;;8.50;50.20;;;;;;4974003;28;20478;-70
2023/03/28 10:00:50;;;;;;;2.73;1.40;;;8.40;49.60;;;;;;4973982;28;20482;-70
2023/03/28 10:03:22;;;;;;;2.53;0.90;;;8.70;52.20;;;;;;4974079;28;20494;-70
2023/03/28 10:05:50;;;;;;;2.57;1.20;;;9.00;53.40;;;;;;4974576;28;20437;-71
2023/03/28 10:08:27;;;;;;;2.50;1.30;;;9.10;49.60;;;;;;4974000;28;20554;-70
2023/03/28 10:11:00;;;;;;;2.20;1.20;;;9.40;49.90;;;;;;4973811;28;20908;-70
2023/03/28 10:13:27;;;;;;;4.70;1.37;;;9.30;50.10;;;;;;4974090;28;20461;-70
2023/03/28 10:15:58;;;;;;;3.20;1.43;;;8.70;50.80;;;;;;4973617;28;20978;-69
2023/03/28 10:18:28;;;;;;;2.67;1.10;;;8.50;51.30;;;;;;4973752;28;20492;-69
2023/03/28 10:20:55;;;;;;;2.43;1.03;;;8.70;50.70;;;;;;4973364;28;21003;-69
2023/03/28 10:23:23;;;;;;;2.13;1.00;;;8.50;50.80;;;;;;4973971;28;20534;-69
2023/03/28 10:25:51;;;;;;;2.63;1.10;;;8.30;52.00;;;;;;4973891;28;20458;-71
2023/03/28 10:28:27;;;;;;;2.30;1.20;;;8.30;51.60;;;;;;4974075;28;20470;-70
2023/03/28 10:30:57;;;;;;;2.90;1.10;;;8.20;51.90;;;;;;4973928;28;20434;-70
2023/03/28 10:33:26;;;;;;;2.70;1.40;;;8.20;51.30;;;;;;4973912;28;20450;-70
2023/03/28 10:35:59;;;;;;;2.57;1.23;;;8.10;50.90;;;;;;4973562;28;20831;-69
2023/03/28 10:38:30;;;;;;;2.67;1.20;;;8.00;50.60;;;;;;4973849;28;20475;-70
2023/03/28 10:41:02;;;;;;;3.23;1.60;;;7.70;51.00;;;;;;4973972;28;20470;-70
2023/03/28 10:43:34;;;;;;;2.30;1.13;;;7.80;52.10;;;;;;4974060;28;20431;-71
2023/03/28 10:46:07;;;;;;;2.30;1.10;;;8.10;52.00;;;;;;4973488;28;20457;-70
2023/03/28 10:48:36;;;;;;;3.43;1.33;;;8.10;51.70;;;;;;4973556;28;20889;-70
2023/03/28 10:51:07;;;;;;;2.90;1.30;;;8.10;53.80;;;;;;4974406;28;20525;-70
2023/03/28 10:54:15;;;;;;;4.27;1.73;;;8.00;53.10;;;;;;4974403;28;20434;-70
2023/03/28 10:56:51;;;;;;;3.10;1.37;;;8.10;54.30;;;;;;4974191;28;20469;-70
2023/03/28 10:59:40;;;;;;;6.63;2.30;;;8.40;55.40;;;;;;4973472;28;20485;-70
2023/03/28 11:02:52;;;;;;;2.57;1.30;;;8.80;55.60;;;;;;4973924;28;20479;-71
2023/03/28 11:05:40;;;;;;;3.83;1.37;;;9.30;54.10;;;;;;4969782;28;20462;-71
2023/03/28 11:08:21;;;;;;;2.80;1.20;;;9.80;54.80;;;;;;4974305;28;20922;-70
2023/03/28 11:10:59;;;;;;;2.87;1.27;;;10.20;52.30;;;;;;4977359;28;20469;-71
2023/03/28 11:13:33;;;;;;;2.83;1.40;;;10.50;49.30;;;;;;4977115;28;20939;-72
2023/03/28 11:16:08;;;;;;;2.90;1.50;;;10.70;48.50;;;;;;4977433;28;20837;-70
2023/03/28 11:18:57;;;;;;;3.70;1.60;;;10.90;50.20;;;;;;4976874;28;20474;-71
2023/03/28 11:21:31;;;;;;;2.40;1.30;;;11.20;50.10;;;;;;4977287;28;20478;-71
2023/03/28 11:24:07;;;;;;;2.43;1.13;;;11.50;47.80;;;;;;4977355;28;20438;-71
2023/03/28 11:26:44;;;;;;;3.00;1.53;;;11.90;47.80;;;;;;4977148;28;20438;-72
2023/03/28 11:29:20;;;;;;;2.77;1.57;;;12.00;46.30;;;;;;4977314;28;20410;-70
2023/03/28 11:31:54;;;;;;;2.70;1.33;;;12.20;48.00;;;;;;4977021;28;20476;-72
2023/03/28 11:34:28;;;;;;;2.60;1.43;;;12.40;47.80;;;;;;4977045;28;20450;-70
2023/03/28 11:37:02;;;;;;;3.23;1.47;;;12.60;47.00;;;;;;4976852;28;20474;-71
2023/03/28 11:39:36;;;;;;;2.80;1.40;;;12.60;47.20;;;;;;4976656;28;20868;-70
2023/03/28 11:42:07;;;;;;;2.43;1.43;;;11.60;46.00;;;;;;4976808;28;20561;-70
2023/03/28 11:44:40;;;;;;;3.23;1.30;;;11.10;46.20;;;;;;4976513;28;20438;-70
2023/03/28 11:47:12;;;;;;;2.20;1.40;;;11.00;46.10;;;;;;4976597;28;20524;-73
2023/03/28 11:49:43;;;;;;;2.20;1.10;;;10.90;46.00;;;;;;4976894;28;20439;-72
2023/03/28 11:52:15;;;;;;;2.40;1.10;;;10.80;46.60;;;;;;4976614;28;20459;-71
2023/03/28 11:54:46;;;;;;;2.77;1.13;;;10.60;46.80;;;;;;4976354;28;20983;-72
2023/03/28 11:57:19;;;;;;;3.90;1.20;;;10.50;48.20;;;;;;4976366;28;20541;-71
2023/03/28 11:59:51;;;;;;;3.23;1.10;;;10.50;46.30;;;;;;4976611;28;20489;-71
2023/03/28 12:02:35;;;;;;;2.50;1.30;;;10.70;46.10;;;;;;4976337;28;21037;-71
2023/03/28 12:05:09;;;;;;;3.43;1.93;;;10.80;45.10;;;;;;4976173;28;20542;-71
2023/03/28 12:07:43;;;;;;;2.60;1.40;;;11.00;45.80;;;;;;4976459;28;20525;-71
2023/03/28 12:10:19;;;;;;;2.17;1.13;;;11.40;45.10;;;;;;4976130;28;20917;-70
2023/03/28 12:12:57;;;;;;;2.77;1.30;;;11.20;44.30;;;;;;4976072;28;20437;-69
2023/03/28 12:15:33;;;;;;;2.27;1.20;;;11.10;44.60;;;;;;4976202;28;20451;-70
2023/03/28 12:18:03;;;;;;;3.00;1.30;;;11.00;46.10;;;;;;4976083;28;20493;-70
2023/03/28 12:20:37;;;;;;;2.60;1.30;;;11.10;46.60;;;;;;4974861;28;20974;-71
2023/03/28 12:23:10;;;;;;;2.30;1.17;;;11.30;45.30;;;;;;4976080;28;20469;-70
2023/03/28 12:25:44;;;;;;;3.87;1.40;;;11.20;45.10;;;;;;4976124;28;20442;-71
2023/03/28 12:28:21;;;;;;;2.17;1.13;;;10.90;46.50;;;;;;4975868;28;20842;-71
2023/03/28 12:30:59;;;;;;;2.10;1.17;;;11.00;46.30;;;;;;4975954;28;20434;-71
2023/03/28 12:33:36;;;;;;;2.43;1.30;;;10.60;46.50;;;;;;4975612;28;20888;-70
2023/03/28 12:36:09;;;;;;;2.43;1.10;;;10.60;46.30;;;;;;4976290;28;20461;-71
2023/03/28 12:38:41;;;;;;;2.57;1.20;;;10.70;46.00;;;;;;4975711;28;20478;-71
2023/03/28 12:41:09;;;;;;;2.90;1.30;;;10.60;46.80;;;;;;4976164;28;20814;-70
2023/03/28 12:43:45;;;;;;;2.83;1.57;;;10.90;46.70;;;;;;4975378;28;20549;-71
2023/03/28 12:46:14;;;;;;;2.40;1.20;;;10.70;44.50;;;;;;4975476;28;20812;-71
2023/03/28 12:48:44;;;;;;;3.43;1.30;;;11.10;46.20;;;;;;4975443;28;20474;-70
2023/03/28 12:51:17;;;;;;;2.77;1.20;;;10.80;46.00;;;;;;4975500;28;20454;-70
2023/03/28 12:53:46;;;;;;;2.50;1.30;;;10.90;46.50;;;;;;4975469;28;20439;-70
2023/03/28 12:56:15;;;;;;;3.00;1.40;;;11.50;45.90;;;;;;4975702;28;20443;-71
2023/03/28 12:58:45;;;;;;;3.23;1.30;;;11.60;44.50;;;;;;4975422;28;20474;-71
2023/03/28 13:01:41;;;;;;;2.77;1.40;;;11.60;45.10;;;;;;4975304;28;20595;-70
2023/03/28 13:04:25;;;;;;;2.60;1.50;;;11.80;42.70;;;;;;4975253;28;20454;-70
2023/03/28 13:07:03;;;;;;;2.10;1.10;;;11.80;43.80;;;;;;4975246;28;20478;-71
2023/03/28 13:10:03;;;;;;;2.70;1.60;;;11.90;43.80;;;;;;4975167;28;20442;-71
2023/03/28 13:13:00;;;;;;;3.70;1.20;;;12.40;42.40;;;;;;4975864;28;20501;-72
2023/03/28 13:15:31;;;;;;;2.17;1.37;;;12.90;42.20;;;;;;4975240;28;20434;-71
2023/03/28 13:30:43;;;;;;;2.30;1.00;;;13.30;38.60;;;;;;4974820;28;20537;-76
2023/03/28 13:33:19;;;;;;;2.70;1.30;;;13.20;38.90;;;;;;4974282;28;20454;-76
2023/03/28 13:35:48;;;;;;;2.23;1.17;;;13.50;41.50;;;;;;4974894;28;20461;-71
2023/03/28 13:38:33;;;;;;;2.10;1.00;;;13.70;39.30;;;;;;4974675;28;20512;-71
2023/03/28 13:41:05;;;;;;;3.30;2.13;;;13.90;39.90;;;;;;4975342;28;20442;-71
2023/03/28 13:43:40;;;;;;;2.90;1.20;;;13.90;38.60;;;;;;4975218;28;20943;-71
2023/03/28 13:46:11;;;;;;;2.60;1.20;;;13.50;38.70;;;;;;4974414;28;20434;-70
2023/03/28 13:48:44;;;;;;;2.13;1.10;;;13.60;40.20;;;;;;4974639;28;20439;-72
2023/03/28 13:51:17;;;;;;;2.20;1.20;;;13.50;37.10;;;;;;4974765;28;20506;-71
2023/03/28 13:53:47;;;;;;;2.33;1.10;;;13.20;39.20;;;;;;4974132;28;20935;-71
2023/03/28 13:56:22;;;;;;;2.20;1.00;;;12.80;37.80;;;;;;4974324;28;20454;-71
2023/03/28 13:58:50;;;;;;;2.23;1.30;;;13.10;39.90;;;;;;4974514;28;20448;-71
2023/03/28 14:01:23;;;;;;;2.10;1.10;;;13.40;38.60;;;;;;4974037;28;20454;-71
2023/03/28 14:03:50;;;;;;;2.07;0.97;;;13.80;38.80;;;;;;4974636;28;20431;-71
2023/03/28 14:06:22;;;;;;;2.20;1.13;;;14.30;36.40;;;;;;4974415;28;20504;-71
2023/03/28 14:08:51;;;;;;;2.97;1.30;;;14.40;37.20;;;;;;4974188;28;20450;-71
2023/03/28 14:11:22;;;;;;;2.07;1.20;;;14.50;35.90;;;;;;4974156;28;20497;-71
2023/03/28 14:13:50;;;;;;;2.50;1.20;;;14.50;37.20;;;;;;4974861;28;20514;-71
2023/03/28 14:16:19;;;;;;;4.00;1.40;;;14.70;36.60;;;;;;4973827;28;20529;-71
2023/03/28 14:18:48;;;;;;;2.70;1.40;;;14.70;37.30;;;;;;4973998;28;20453;-71
2023/03/28 14:21:15;;;;;;;2.13;1.20;;;14.80;37.30;;;;;;4973982;28;20450;-72
2023/03/28 14:23:53;;;;;;;2.50;1.10;;;14.90;37.80;;;;;;4973835;28;20504;-71
2023/03/28 14:26:20;;;;;;;2.23;1.30;;;14.80;36.30;;;;;;4974616;28;20443;-74
2023/03/28 14:28:50;;;;;;;2.37;1.17;;;14.50;37.40;;;;;;4974630;28;20521;-71
2023/03/28 14:31:29;;;;;;;3.90;1.40;;;14.80;36.70;;;;;;4974370;28;20462;-71
2023/03/28 14:33:57;;;;;;;3.73;1.40;;;15.00;36.50;;;;;;4974786;28;20461;-72
2023/03/28 14:36:24;;;;;;;2.17;1.00;;;15.40;36.10;;;;;;4974419;28;20517;-73
2023/03/28 14:38:51;;;;;;;3.03;1.10;;;16.40;35.30;;;;;;4974448;28;20469;-73
2023/03/28 14:41:20;;;;;;;3.53;1.50;;;17.80;33.80;;;;;;4974225;28;20896;-72
2023/03/28 14:43:50;;;;;;;2.60;1.30;;;18.70;31.90;;;;;;4975636;28;20493;-72
2023/03/28 14:46:21;;;;;;;2.80;1.37;;;19.40;31.80;;;;;;4977648;28;20773;-72
2023/03/28 14:48:52;;;;;;;2.23;1.00;;;20.00;30.80;;;;;;4977646;28;20504;-72
2023/03/28 14:51:21;;;;;;;2.43;1.00;;;20.60;30.50;;;;;;4978124;28;20488;-72
2023/03/28 14:53:48;;;;;;;2.20;1.00;;;20.90;29.90;;;;;;4977519;28;20474;-72
2023/03/28 14:56:21;;;;;;;3.73;1.30;;;21.40;29.20;;;;;;4977338;28;20555;-72
2023/03/28 14:58:49;;;;;;;2.00;1.00;;;21.30;29.30;;;;;;4977485;28;20434;-72
2023/03/28 15:01:21;;;;;;;2.37;1.07;;;21.20;29.60;;;;;;4976980;28;20453;-73
2023/03/28 15:03:52;;;;;;;2.23;1.20;;;20.90;29.50;;;;;;4977270;28;20470;-73
2023/03/28 15:06:22;;;;;;;2.37;1.20;;;20.80;29.10;;;;;;4976892;28;20481;-72
2023/03/28 15:08:50;;;;;;;2.83;1.20;;;21.50;29.20;;;;;;4977902;28;20458;-73
2023/03/28 15:11:21;;;;;;;2.50;1.00;;;21.40;29.00;;;;;;4977192;28;20533;-73
2023/03/28 15:13:50;;;;;;;2.13;1.00;;;20.30;29.90;;;;;;4976815;28;20807;-73
2023/03/28 15:16:20;;;;;;;2.40;1.10;;;19.20;30.80;;;;;;4977112;28;20449;-73
2023/03/28 15:19:05;;;;;;;2.70;1.07;;;19.00;31.40;;;;;;4976906;28;20489;-74
2023/03/28 15:21:33;;;;;;;2.07;0.90;;;18.80;31.80;;;;;;4976700;28;20902;-73
2023/03/28 15:24:00;;;;;;;1.90;0.90;;;20.10;32.40;;;;;;4976901;28;20489;-73
2023/03/28 15:26:29;;;;;;;2.83;1.10;;;20.90;29.90;;;;;;4976536;28;21005;-73
2023/03/28 15:28:57;;;;;;;2.30;1.10;;;20.90;29.80;;;;;;4976828;28;20445;-72
2023/03/28 15:31:25;;;;;;;2.50;1.00;;;20.60;29.30;;;;;;4976705;28;20466;-72
2023/03/28 15:33:53;;;;;;;3.27;1.67;;;19.30;30.30;;;;;;4976656;28;20457;-72
2023/03/28 15:36:24;;;;;;;2.80;1.10;;;17.20;33.30;;;;;;4976292;28;20453;-72
2023/03/28 15:38:59;;;;;;;2.23;1.10;;;16.50;34.30;;;;;;4976643;28;20465;-72
2023/03/28 15:41:30;;;;;;;2.20;1.00;;;15.40;35.30;;;;;;4976653;28;20521;-72
2023/03/28 15:44:08;;;;;;;2.77;1.17;;;14.40;37.20;;;;;;4976578;28;20529;-72
2023/03/28 15:46:35;;;;;;;2.50;1.20;;;13.40;38.80;;;;;;4976494;28;20474;-71
2023/03/28 15:49:05;;;;;;;3.23;1.10;;;12.90;39.40;;;;;;4976432;28;20457;-72
2023/03/28 15:51:42;;;;;;;2.27;1.20;;;12.50;41.00;;;;;;4976155;28;20944;-72
2023/03/28 15:54:13;;;;;;;2.93;1.27;;;12.40;41.20;;;;;;4975992;28;20433;-71
2023/03/28 15:56:44;;;;;;;2.20;1.20;;;12.20;41.40;;;;;;4976491;28;20477;-71
2023/03/28 15:59:13;;;;;;;2.40;1.30;;;12.00;40.80;;;;;;4976722;28;20438;-72
2023/03/28 16:01:40;;;;;;;3.23;1.03;;;11.70;41.80;;;;;;4976141;28;20454;-72
2023/03/28 16:04:30;;;;;;;2.20;1.10;;;11.40;42.90;;;;;;4975824;28;21087;-72
2023/03/28 16:07:11;;;;;;;1.80;0.83;;;11.30;43.00;;;;;;4965725;28;20528;-71
2023/03/28 16:09:41;;;;;;;2.23;1.30;;;11.40;43.30;;;;;;4976067;28;20543;-72
2023/03/28 16:12:12;;;;;;;2.63;1.37;;;11.50;44.30;;;;;;4975782;28;20877;-71
2023/03/28 16:14:44;;;;;;;2.10;0.97;;;11.60;43.40;;;;;;4975975;28;20434;-72
2023/03/28 16:17:10;;;;;;;4.30;1.23;;;11.80;44.00;;;;;;4975669;28;20986;-71
2023/03/28 16:19:37;;;;;;;2.60;1.33;;;11.60;43.90;;;;;;4975776;28;20816;-72
2023/03/28 16:22:05;;;;;;;2.10;0.90;;;11.50;42.60;;;;;;4975750;28;20504;-72